Time;durP1;ratioP1;P1;durP2;ratioP2;P2;SDS_P1;SDS_P2;PMS_P1;PMS_P2;Temp;Humidity;BMP_temperature;BMP_pressure;BME280_temperature;BME280_humidity;BME280_pressure;Samples;Min_cycle;Max_cycle;Signal;HPM_P1;HPM_P2
2022/11/21 00:01:52;;;;;;;;;;;12.40;75.60;;;;;;5043178;28;88006;-39
2022/11/21 00:04:17;;;;;;;;;;;12.40;75.50;;;;;;5047033;28;86540;-39
2022/11/21 00:06:43;;;;;;;;;;;12.40;75.50;;;;;;5043098;28;87999;-39
2022/11/21 00:09:08;;;;;;;;;;;12.40;75.50;;;;;;5043446;28;87157;-39
2022/11/21 00:11:34;;;;;;;;;;;12.40;75.50;;;;;;5042965;28;87995;-39
2022/11/21 00:13:59;;;;;;;;;;;12.40;75.60;;;;;;5042842;28;88138;-39
2022/11/21 00:16:25;;;;;;;;;;;12.40;75.50;;;;;;5043425;28;87103;-39
2022/11/21 00:18:50;;;;;;;;;;;12.30;75.50;;;;;;5042128;27;87110;-39
2022/11/21 00:21:17;;;;;;;;;;;12.40;75.60;;;;;;5042812;28;88125;-39
2022/11/21 00:23:43;;;;;;;;;;;12.30;75.60;;;;;;5042982;28;87229;-39
2022/11/21 00:26:10;;;;;;;;;;;12.30;75.60;;;;;;5045964;27;88508;-39
2022/11/21 00:28:36;;;;;;;;;;;12.30;75.60;;;;;;5043728;28;86403;-39
2022/11/21 00:31:01;;;;;;;;;;;12.30;75.50;;;;;;5043262;27;86932;-39
2022/11/21 00:33:27;;;;;;;;;;;12.30;75.50;;;;;;5042095;28;88051;-39
2022/11/21 00:35:52;;;;;;;;;;;12.30;75.50;;;;;;5042217;28;88106;-39
2022/11/21 00:38:18;;;;;;;;;;;12.30;75.70;;;;;;5042880;28;88581;-39
2022/11/21 00:40:43;;;;;;;;;;;12.30;75.60;;;;;;5042733;28;88024;-39
2022/11/21 00:43:09;;;;;;;;;;;12.30;75.50;;;;;;5042976;28;87293;-39
2022/11/21 00:45:35;;;;;;;;;;;12.30;76.20;;;;;;5042466;28;87486;-39
2022/11/21 00:48:00;;;;;;;;;;;12.20;75.50;;;;;;5045472;28;87813;-39
2022/11/21 00:50:26;;;;;;;;;;;12.30;75.60;;;;;;5042880;28;87376;-39
2022/11/21 00:52:56;;;;;;;;;;;12.20;75.80;;;;;;5042955;28;86585;-39
2022/11/21 00:55:22;;;;;;;;;;;12.30;75.70;;;;;;5042365;28;87134;-39
2022/11/21 00:57:47;;;;;;;;;;;12.20;75.50;;;;;;5042609;27;87419;-39
2022/11/21 01:00:13;;;;;;;;;;;12.20;75.70;;;;;;5041802;28;88854;-39
2022/11/21 01:02:38;;;;;;;;;;;12.20;75.70;;;;;;5042492;28;87188;-39
2022/11/21 01:05:04;;;;;;;;;;;12.20;75.50;;;;;;5042563;28;87546;-39
2022/11/21 01:07:29;;;;;;;;;;;12.20;75.50;;;;;;5045150;28;87245;-39
2022/11/21 01:09:55;;;;;;;;;;;12.20;75.80;;;;;;5042715;28;87319;-39
2022/11/21 01:12:20;;;;;;;;;;;12.20;75.70;;;;;;5042161;28;87143;-39
2022/11/21 01:14:46;;;;;;;;;;;12.20;75.70;;;;;;5042596;28;87007;-39
2022/11/21 01:17:11;;;;;;;;;;;12.20;75.60;;;;;;5042622;28;87689;-39
2022/11/21 01:19:37;;;;;;;;;;;12.20;75.70;;;;;;5042052;28;88290;-39
2022/11/21 01:22:02;;;;;;;;;;;12.20;75.80;;;;;;5042459;28;87122;-39
2022/11/21 01:24:28;;;;;;;;;;;12.20;75.60;;;;;;5041847;28;88378;-39
2022/11/21 01:26:54;;;;;;;;;;;12.20;75.50;;;;;;5042071;28;87908;-39
2022/11/21 01:29:19;;;;;;;;;;;12.20;75.50;;;;;;5045382;28;87011;-39
2022/11/21 01:31:45;;;;;;;;;;;12.20;75.50;;;;;;5045206;27;87927;-39
2022/11/21 01:34:10;;;;;;;;;;;12.10;75.50;;;;;;5045519;28;86942;-39
2022/11/21 01:36:36;;;;;;;;;;;12.20;75.70;;;;;;5045528;27;88704;-39
2022/11/21 01:39:03;;;;;;;;;;;12.20;75.70;;;;;;5045452;28;88223;-39
2022/11/21 01:41:32;;;;;;;;;;;12.10;75.90;;;;;;5045912;28;86420;-39
2022/11/21 01:44:15;;;;;;;;;;;12.10;75.90;;;;;;5045201;27;87182;-39
2022/11/21 01:46:41;;;;;;;;;;;12.10;75.70;;;;;;5044975;28;90602;-39
2022/11/21 01:49:17;;;;;;;;;;;12.20;75.70;;;;;;5045069;28;88089;-39
2022/11/21 01:51:55;;;;;;;;;;;12.20;75.60;;;;;;5047975;27;88466;-39
2022/11/21 01:54:55;;;;;;;;;;;12.20;75.80;;;;;;5045429;28;87130;-39
2022/11/21 01:57:24;;;;;;;;;;;12.10;75.80;;;;;;5002799;28;87562;-39
2022/11/21 01:59:54;;;;;;;;;;;12.10;75.70;;;;;;5036951;27;88540;-39
2022/11/21 02:02:22;;;;;;;;;;;12.10;75.70;;;;;;5045541;28;87059;-39
2022/11/21 02:04:48;;;;;;;;;;;12.10;75.80;;;;;;5045584;27;87405;-39
2022/11/21 02:07:16;;;;;;;;;;;12.10;75.80;;;;;;5045420;28;87363;-39
2022/11/21 02:09:43;;;;;;;;;;;12.10;75.80;;;;;;5045252;28;87193;-39
2022/11/21 02:12:13;;;;;;;;;;;12.10;75.70;;;;;;5045237;27;87350;-39
2022/11/21 02:14:39;;;;;;;;;;;12.20;75.70;;;;;;5046858;28;90360;-39
2022/11/21 02:17:06;;;;;;;;;;;12.10;75.60;;;;;;5045039;27;88386;-39
2022/11/21 02:19:47;;;;;;;;;;;12.10;75.50;;;;;;5044652;28;89155;-39
2022/11/21 02:22:17;;;;;;;;;;;12.10;75.50;;;;;;5044857;28;87161;-39
2022/11/21 02:24:45;;;;;;;;;;;12.10;75.80;;;;;;5044995;28;89140;-39
2022/11/21 02:27:10;;;;;;;;;;;12.10;76.20;;;;;;5044918;28;87862;-39
2022/11/21 02:29:37;;;;;;;;;;;12.10;75.70;;;;;;5045043;28;87081;-39
2022/11/21 02:32:04;;;;;;;;;;;12.10;75.70;;;;;;5045280;27;88070;-39
2022/11/21 02:34:29;;;;;;;;;;;12.10;75.70;;;;;;5044023;28;89587;-39
2022/11/21 02:36:55;;;;;;;;;;;12.10;75.80;;;;;;5047835;28;87166;-39
2022/11/21 02:39:39;;;;;;;;;;;12.10;75.90;;;;;;5043646;28;88984;-39
2022/11/21 02:42:11;;;;;;;;;;;12.10;75.90;;;;;;5044258;27;87038;-39
2022/11/21 02:44:55;;;;;;;;;;;12.10;75.90;;;;;;5037997;27;90629;-39
2022/11/21 02:47:21;;;;;;;;;;;12.10;75.90;;;;;;5023872;28;88320;-39
2022/11/21 02:49:54;;;;;;;;;;;12.10;75.70;;;;;;5024553;28;87086;-39
2022/11/21 02:52:19;;;;;;;;;;;12.10;75.90;;;;;;5024859;28;87480;-39
2022/11/21 02:54:45;;;;;;;;;;;12.00;76.00;;;;;;5024159;28;87925;-39
2022/11/21 02:57:10;;;;;;;;;;;12.00;76.00;;;;;;5025051;28;86246;-39
2022/11/21 02:59:36;;;;;;;;;;;12.10;75.90;;;;;;5026800;28;87308;-39
2022/11/21 03:02:01;;;;;;;;;;;12.00;76.00;;;;;;5024344;28;87122;-39
2022/11/21 03:04:27;;;;;;;;;;;12.00;76.00;;;;;;5023743;28;88073;-39
2022/11/21 03:06:53;;;;;;;;;;;12.00;75.90;;;;;;5023996;28;89189;-39
2022/11/21 03:09:18;;;;;;;;;;;12.00;76.00;;;;;;5024185;28;87172;-39
2022/11/21 03:11:44;;;;;;;;;;;12.00;75.90;;;;;;5024174;28;87324;-40
2022/11/21 03:14:09;;;;;;;;;;;12.00;75.90;;;;;;5023986;28;88054;-39
2022/11/21 03:16:35;;;;;;;;;;;12.00;75.90;;;;;;5023909;28;87170;-39
2022/11/21 03:19:00;;;;;;;;;;;12.00;75.90;;;;;;5026603;28;87503;-39
2022/11/21 03:21:26;;;;;;;;;;;12.00;75.90;;;;;;5024499;28;87035;-39
2022/11/21 03:23:51;;;;;;;;;;;12.00;75.90;;;;;;5024073;28;86838;-39
2022/11/21 03:26:17;;;;;;;;;;;12.00;76.00;;;;;;5023552;28;88173;-39
2022/11/21 03:28:42;;;;;;;;;;;12.00;75.90;;;;;;5023317;28;88048;-39
2022/11/21 03:31:08;;;;;;;;;;;12.00;75.90;;;;;;5023618;28;87086;-39
2022/11/21 03:33:33;;;;;;;;;;;12.00;75.90;;;;;;5023446;28;88007;-39
2022/11/21 03:35:59;;;;;;;;;;;12.00;76.00;;;;;;5023878;28;87114;-39
2022/11/21 03:38:24;;;;;;;;;;;12.00;75.90;;;;;;5023846;28;87432;-39
2022/11/21 03:40:50;;;;;;;;;;;12.00;75.90;;;;;;5026394;28;88049;-39
2022/11/21 03:43:15;;;;;;;;;;;12.00;76.10;;;;;;5023655;28;88574;-39
2022/11/21 03:45:41;;;;;;;;;;;11.90;76.20;;;;;;5037975;28;87459;-39
2022/11/21 03:48:06;;;;;;;;;;;12.00;76.10;;;;;;5043826;28;87103;-39
2022/11/21 03:50:32;;;;;;;;;;;12.00;76.00;;;;;;5043738;28;87472;-39
2022/11/21 03:52:57;;;;;;;;;;;12.00;76.00;;;;;;5042643;27;89355;-39
2022/11/21 03:55:23;;;;;;;;;;;12.00;76.00;;;;;;5043858;28;87023;-39
2022/11/21 03:57:48;;;;;;;;;;;12.00;75.90;;;;;;5043728;27;87090;-39
2022/11/21 04:00:14;;;;;;;;;;;11.90;76.00;;;;;;5043209;28;87981;-39
2022/11/21 04:02:40;;;;;;;;;;;12.00;75.90;;;;;;5046124;28;86996;-39
2022/11/21 04:05:05;;;;;;;;;;;11.90;75.90;;;;;;5043249;28;87888;-39
2022/11/21 04:07:31;;;;;;;;;;;11.90;76.10;;;;;;5043630;28;87126;-39
2022/11/21 04:09:56;;;;;;;;;;;12.00;76.20;;;;;;5044119;28;87402;-39
2022/11/21 04:12:22;;;;;;;;;;;11.90;76.10;;;;;;5043193;28;87305;-39
2022/11/21 04:14:47;;;;;;;;;;;12.00;76.00;;;;;;5043374;28;87043;-39
2022/11/21 04:17:13;;;;;;;;;;;11.90;76.00;;;;;;5042577;27;88023;-40
2022/11/21 04:19:38;;;;;;;;;;;11.90;76.00;;;;;;5042814;28;88103;-39
2022/11/21 04:22:04;;;;;;;;;;;11.90;76.10;;;;;;5043162;28;87143;-39
2022/11/21 04:24:29;;;;;;;;;;;11.90;76.00;;;;;;5045894;28;87491;-39
2022/11/21 04:26:54;;;;;;;;;;;11.90;76.80;;;;;;5043345;28;87218;-39
2022/11/21 04:29:20;;;;;;;;;;;11.90;76.30;;;;;;5043295;28;87464;-39
2022/11/21 04:31:45;;;;;;;;;;;11.90;76.10;;;;;;5042573;28;88202;-39
2022/11/21 04:34:11;;;;;;;;;;;11.90;76.40;;;;;;5043388;28;86194;-39
2022/11/21 04:36:36;;;;;;;;;;;11.90;76.20;;;;;;5043018;27;87391;-39
2022/11/21 04:39:02;;;;;;;;;;;11.90;76.10;;;;;;5042425;28;88040;-39
2022/11/21 04:41:27;;;;;;;;;;;11.90;76.30;;;;;;5042541;28;88007;-40
2022/11/21 04:43:53;;;;;;;;;;;11.90;76.20;;;;;;5042633;28;88553;-39
2022/11/21 04:46:18;;;;;;;;;;;11.90;76.10;;;;;;5045137;28;88239;-40
2022/11/21 04:48:44;;;;;;;;;;;11.90;76.00;;;;;;5042976;28;87496;-39
2022/11/21 04:51:09;;;;;;;;;;;11.90;76.10;;;;;;5042584;28;87183;-39
2022/11/21 04:53:35;;;;;;;;;;;11.90;76.30;;;;;;5042992;28;87258;-39
2022/11/21 04:56:04;;;;;;;;;;;11.90;76.10;;;;;;5043037;28;87419;-39
2022/11/21 04:58:29;;;;;;;;;;;11.90;76.10;;;;;;5042761;28;88640;-39
2022/11/21 05:00:55;;;;;;;;;;;11.90;76.40;;;;;;5042574;28;87155;-39
2022/11/21 05:03:20;;;;;;;;;;;11.90;76.40;;;;;;5042805;28;87387;-39
2022/11/21 05:05:46;;;;;;;;;;;11.90;76.40;;;;;;5041253;28;89166;-39
2022/11/21 05:08:12;;;;;;;;;;;11.90;76.50;;;;;;5045480;28;87079;-39
2022/11/21 05:13:21;;;;;;;;;;;11.80;76.20;;;;;;5042789;28;86914;-39
2022/11/21 05:15:50;;;;;;;;;;;11.80;76.60;;;;;;5042259;28;87926;-39
2022/11/21 05:18:17;;;;;;;;;;;11.80;76.60;;;;;;5041898;28;89589;-39
2022/11/21 05:20:42;;;;;;;;;;;11.80;76.40;;;;;;5042569;28;87082;-39
2022/11/21 05:23:08;;;;;;;;;;;11.80;76.60;;;;;;5043141;28;86667;-39
2022/11/21 05:25:33;;;;;;;;;;;11.80;76.60;;;;;;5042074;28;88157;-39
2022/11/21 05:27:59;;;;;;;;;;;11.80;76.60;;;;;;5045327;28;87094;-39
2022/11/21 05:30:24;;;;;;;;;;;11.80;76.90;;;;;;5041318;28;89063;-39
2022/11/21 05:32:50;;;;;;;;;;;11.80;76.40;;;;;;5042470;28;87231;-39
2022/11/21 05:35:15;;;;;;;;;;;11.80;76.60;;;;;;5042074;28;87339;-39
2022/11/21 05:37:41;;;;;;;;;;;11.80;76.60;;;;;;5041703;28;87307;-39
2022/11/21 05:40:07;;;;;;;;;;;11.80;76.50;;;;;;5042310;28;87133;-39
2022/11/21 05:45:16;;;;;;;;;;;11.80;76.60;;;;;;5041122;28;87561;-39
2022/11/21 05:47:42;;;;;;;;;;;11.80;76.40;;;;;;5042551;28;86432;-39
2022/11/21 05:50:08;;;;;;;;;;;11.80;76.40;;;;;;5044764;28;86925;-39
2022/11/21 05:52:33;;;;;;;;;;;11.80;76.30;;;;;;5041953;28;87071;-39
2022/11/21 05:54:59;;;;;;;;;;;11.80;76.60;;;;;;5041395;28;88558;-39
2022/11/21 05:57:24;;;;;;;;;;;11.80;76.30;;;;;;5041533;28;88048;-39
2022/11/21 05:59:50;;;;;;;;;;;11.80;76.30;;;;;;5041957;28;87208;-39
2022/11/21 06:04:59;;;;;;;;;;;11.80;76.30;;;;;;5041746;28;86934;-39
2022/11/21 06:07:24;;;;;;;;;;;11.80;76.30;;;;;;5042038;28;87116;-39
2022/11/21 06:09:50;;;;;;;;;;;11.80;76.30;;;;;;5041973;28;87612;-39
2022/11/21 06:12:15;;;;;;;;;;;11.80;76.50;;;;;;5044611;28;87303;-39
2022/11/21 06:14:41;;;;;;;;;;;11.80;76.40;;;;;;5042172;28;86988;-39
2022/11/21 06:17:06;;;;;;;;;;;11.80;76.40;;;;;;5042126;27;88216;-39
2022/11/21 06:19:32;;;;;;;;;;;11.80;76.40;;;;;;5044460;28;88257;-39
2022/11/21 06:21:57;;;;;;;;;;;11.80;76.50;;;;;;5045291;28;88303;-39
2022/11/21 06:24:23;;;;;;;;;;;11.80;76.30;;;;;;5044676;28;87372;-39
2022/11/21 06:26:48;;;;;;;;;;;11.80;76.40;;;;;;5045252;28;87325;-39
2022/11/21 06:29:15;;;;;;;;;;;11.80;76.50;;;;;;5045086;28;87759;-39
2022/11/21 06:31:41;;;;;;;;;;;11.80;76.50;;;;;;5044279;28;88950;-39
2022/11/21 06:34:06;;;;;;;;;;;11.80;76.50;;;;;;5047770;28;87252;-39
2022/11/21 06:36:32;;;;;;;;;;;11.80;76.40;;;;;;5044874;28;87497;-39
2022/11/21 06:38:57;;;;;;;;;;;11.80;76.20;;;;;;5044860;28;87158;-39
2022/11/21 06:41:24;;;;;;;;;;;11.80;76.60;;;;;;5044826;28;88105;-39
2022/11/21 06:43:50;;;;;;;;;;;11.80;76.40;;;;;;5043524;28;89659;-39
2022/11/21 06:46:16;;;;;;;;;;;11.80;76.50;;;;;;5044417;28;87219;-39
2022/11/21 06:48:41;;;;;;;;;;;11.80;76.30;;;;;;5044775;28;87250;-39
2022/11/21 06:51:12;;;;;;;;;;;11.70;76.30;;;;;;5044445;28;88203;-39
2022/11/21 06:53:37;;;;;;;;;;;11.80;76.50;;;;;;5044740;28;87044;-39
2022/11/21 06:56:03;;;;;;;;;;;11.80;76.30;;;;;;5047023;28;87475;-39
2022/11/21 06:58:29;;;;;;;;;;;11.70;76.40;;;;;;5044742;28;86965;-40
2022/11/21 07:00:55;;;;;;;;;;;11.70;76.40;;;;;;5044895;27;87315;-40
2022/11/21 07:03:21;;;;;;;;;;;11.80;76.50;;;;;;5044148;28;87312;-39
2022/11/21 07:05:47;;;;;;;;;;;11.80;76.40;;;;;;5044254;28;87076;-39
2022/11/21 07:08:12;;;;;;;;;;;11.70;77.00;;;;;;5043985;27;87659;-39
2022/11/21 07:10:38;;;;;;;;;;;11.80;76.50;;;;;;5043843;28;88157;-39
2022/11/21 07:13:21;;;;;;;;;;;11.70;76.20;;;;;;5044368;28;86771;-39
2022/11/21 07:15:48;;;;;;;;;;;11.70;76.40;;;;;;5046899;27;88559;-39
2022/11/21 07:18:13;;;;;;;;;;;11.70;76.60;;;;;;5044130;28;87117;-39
2022/11/21 07:20:39;;;;;;;;;;;11.70;76.50;;;;;;5044423;28;87879;-39
2022/11/21 07:23:05;;;;;;;;;;;11.70;76.50;;;;;;5043425;28;88469;-39
2022/11/21 07:25:30;;;;;;;;;;;11.70;76.40;;;;;;5044486;28;86401;-39
2022/11/21 07:28:02;;;;;;;;;;;11.70;76.50;;;;;;5043608;27;88119;-39
2022/11/21 07:30:28;;;;;;;;;;;11.70;76.40;;;;;;5043471;28;88170;-39
2022/11/21 07:32:57;;;;;;;;;;;11.60;76.40;;;;;;5043432;28;87856;-39
2022/11/21 07:35:23;;;;;;;;;;;11.70;76.40;;;;;;5043853;27;88344;-39
2022/11/21 07:37:48;;;;;;;;;;;11.60;76.40;;;;;;5046142;28;88017;-39
2022/11/21 07:40:14;;;;;;;;;;;11.60;76.40;;;;;;5042445;28;90682;-40
2022/11/21 07:42:39;;;;;;;;;;;11.60;76.40;;;;;;5043668;28;88041;-39
2022/11/21 07:45:05;;;;;;;;;;;11.60;76.30;;;;;;5043381;28;87166;-39
2022/11/21 07:47:30;;;;;;;;;;;11.60;76.40;;;;;;5043951;27;87250;-39
2022/11/21 07:49:56;;;;;;;;;;;11.60;76.20;;;;;;5043834;28;88636;-39
2022/11/21 07:52:21;;;;;;;;;;;11.60;76.10;;;;;;5043711;28;87192;-39
2022/11/21 07:54:47;;;;;;;;;;;11.60;76.10;;;;;;5043602;27;87323;-39
2022/11/21 07:57:12;;;;;;;;;;;11.60;76.00;;;;;;5042837;28;88990;-39
2022/11/21 07:59:38;;;;;;;;;;;11.60;76.10;;;;;;5046601;28;87141;-39
2022/11/21 08:02:03;;;;;;;;;;;11.60;76.10;;;;;;5043141;28;88186;-39
2022/11/21 08:04:29;;;;;;;;;;;11.60;76.20;;;;;;5043614;28;87164;-39
2022/11/21 08:06:54;;;;;;;;;;;11.50;76.10;;;;;;5043337;28;87406;-39
2022/11/21 08:09:20;;;;;;;;;;;11.60;76.10;;;;;;5042844;28;89206;-39
2022/11/21 08:11:45;;;;;;;;;;;11.50;76.00;;;;;;5043365;28;87099;-39
2022/11/21 08:14:11;;;;;;;;;;;11.50;76.10;;;;;;5044041;28;86983;-39
2022/11/21 08:16:36;;;;;;;;;;;11.60;76.10;;;;;;5043042;28;88105;-39
2022/11/21 08:19:02;;;;;;;;;;;11.50;76.00;;;;;;5042944;28;87323;-39
2022/11/21 08:21:27;;;;;;;;;;;11.50;76.00;;;;;;5045394;27;87977;-39
2022/11/21 08:23:53;;;;;;;;;;;11.50;75.90;;;;;;5042891;28;86942;-39
2022/11/21 08:26:19;;;;;;;;;;;11.50;75.90;;;;;;5043298;27;87185;-39
2022/11/21 08:28:44;;;;;;;;;;;11.50;75.90;;;;;;5042968;28;87364;-39
2022/11/21 08:31:09;;;;;;;;;;;11.50;75.90;;;;;;5043168;28;87087;-39
2022/11/21 08:33:35;;;;;;;;;;;11.50;75.90;;;;;;5043163;28;87396;-39
2022/11/21 08:36:04;;;;;;;;;;;11.50;75.90;;;;;;5042560;28;88114;-39
2022/11/21 08:38:30;;;;;;;;;;;11.50;75.90;;;;;;5043252;28;86475;-39
2022/11/21 08:43:39;;;;;;;;;;;11.50;75.90;;;;;;5045768;28;87162;-39
2022/11/21 08:46:05;;;;;;;;;;;11.50;75.90;;;;;;5041949;28;87988;-40
2022/11/21 08:48:30;;;;;;;;;;;11.50;75.80;;;;;;5042717;28;88000;-39
2022/11/21 08:50:56;;;;;;;;;;;11.50;75.80;;;;;;5043045;28;86932;-39
2022/11/21 08:53:22;;;;;;;;;;;11.50;75.80;;;;;;5042806;27;87010;-39
2022/11/21 08:55:47;;;;;;;;;;;11.40;75.80;;;;;;5042599;28;88002;-39
2022/11/21 08:58:13;;;;;;;;;;;11.40;75.80;;;;;;5042752;28;87534;-39
2022/11/21 09:00:38;;;;;;;;;;;11.40;75.80;;;;;;5042934;28;87412;-39
2022/11/21 09:03:04;;;;;;;;;;;11.40;75.80;;;;;;5042980;28;87356;-39
2022/11/21 09:05:30;;;;;;;;;;;11.40;75.70;;;;;;5045683;28;87198;-39
2022/11/21 09:07:56;;;;;;;;;;;11.40;75.70;;;;;;5041991;28;88093;-39
2022/11/21 09:10:22;;;;;;;;;;;11.40;75.70;;;;;;5041901;28;88103;-39
2022/11/21 09:12:47;;;;;;;;;;;11.40;75.60;;;;;;5042762;27;88683;-39
2022/11/21 09:18:04;;;;;;;;;;;11.40;75.70;;;;;;5042665;28;87019;-39
2022/11/21 09:20:30;;;;;;;;;;;11.40;75.70;;;;;;5042423;27;88634;-39
2022/11/21 09:22:55;;;;;;;;;;;11.40;75.70;;;;;;5042012;28;88001;-39
2022/11/21 09:25:21;;;;;;;;;;;11.30;75.60;;;;;;5045183;28;87155;-39
2022/11/21 09:27:46;;;;;;;;;;;11.30;75.60;;;;;;5042683;28;87446;-39
2022/11/21 09:30:12;;;;;;;;;;;11.30;75.60;;;;;;5042545;28;87087;-39
2022/11/21 09:32:39;;;;;;;;;;;11.40;75.50;;;;;;5042281;27;89004;-39
2022/11/21 09:35:04;;;;;;;;;;;11.30;75.70;;;;;;5041026;28;88918;-39
2022/11/21 09:37:34;;;;;;;;;;;11.30;75.70;;;;;;5042273;28;87188;-39
2022/11/21 09:40:00;;;;;;;;;;;11.30;75.60;;;;;;5042068;28;87446;-39
2022/11/21 09:42:31;;;;;;;;;;;11.30;75.60;;;;;;5041859;28;88108;-39
2022/11/21 09:45:04;;;;;;;;;;;11.30;75.60;;;;;;5041981;28;87192;-39
2022/11/21 09:47:50;;;;;;;;;;;11.30;75.60;;;;;;5044658;27;87302;-39
2022/11/21 09:50:24;;;;;;;;;;;11.30;75.70;;;;;;5041576;28;87173;-39
2022/11/21 09:53:01;;;;;;;;;;;11.30;75.60;;;;;;5045671;27;88715;-39
2022/11/21 09:55:39;;;;;;;;;;;11.30;75.60;;;;;;5045517;28;88088;-39
2022/11/21 09:58:08;;;;;;;;;;;11.30;75.60;;;;;;5045304;28;87151;-39
2022/11/21 10:00:34;;;;;;;;;;;11.20;75.70;;;;;;5044732;27;87911;-39
2022/11/21 10:03:00;;;;;;;;;;;11.20;75.60;;;;;;5044827;28;90061;-39
2022/11/21 10:05:43;;;;;;;;;;;11.20;75.60;;;;;;5045152;28;87169;-39
2022/11/21 10:08:16;;;;;;;;;;;11.20;75.50;;;;;;5045289;28;87106;-39
2022/11/21 10:10:49;;;;;;;;;;;11.20;75.50;;;;;;5047697;28;89382;-39
2022/11/21 10:13:33;;;;;;;;;;;11.20;75.40;;;;;;5045299;27;87483;-39
2022/11/21 10:16:04;;;;;;;;;;;11.20;75.50;;;;;;5044924;27;87771;-39
2022/11/21 10:18:48;;;;;;;;;;;11.20;75.40;;;;;;5045713;28;86498;-39
2022/11/21 10:21:14;;;;;;;;;;;11.20;75.40;;;;;;5045340;27;87615;-39
2022/11/21 10:24:18;;;;;;;;;;;11.20;75.40;;;;;;5044884;28;88181;-39
2022/11/21 10:26:48;;;;;;;;;;;11.20;75.40;;;;;;5001628;28;88152;-39
2022/11/21 10:29:24;;;;;;;;;;;11.20;75.50;;;;;;5002114;28;88444;-39
2022/11/21 10:31:52;;;;;;;;;;;11.20;75.50;;;;;;5025819;28;87733;-39
2022/11/21 10:34:19;;;;;;;;;;;11.20;75.50;;;;;;5048058;28;87493;-39
2022/11/21 10:36:49;;;;;;;;;;;11.20;76.00;;;;;;5044336;28;88067;-39
2022/11/21 10:39:24;;;;;;;;;;;11.10;75.60;;;;;;5044512;28;87166;-39
2022/11/21 10:42:03;;;;;;;;;;;11.10;75.60;;;;;;5044704;27;88926;-39
2022/11/21 10:47:14;;;;;;;;;;;11.10;75.50;;;;;;5044816;28;86992;-39
2022/11/21 10:49:41;;;;;;;;;;;11.10;75.50;;;;;;5044863;28;87914;-39
2022/11/21 10:52:10;;;;;;;;;;;11.10;75.50;;;;;;5043486;28;88122;-39
2022/11/21 10:54:54;;;;;;;;;;;11.10;75.50;;;;;;5044496;28;87154;-39
2022/11/21 10:57:20;;;;;;;;;;;11.10;75.50;;;;;;5047366;27;87322;-40
2022/11/21 10:59:56;;;;;;;;;;;11.10;75.50;;;;;;5044472;28;87150;-39
2022/11/21 11:02:23;;;;;;;;;;;11.10;75.40;;;;;;5044615;27;87450;-39
2022/11/21 11:04:48;;;;;;;;;;;11.10;75.40;;;;;;5043469;28;88219;-39
2022/11/21 11:07:34;;;;;;;;;;;11.10;75.40;;;;;;5044590;28;87222;-39
2022/11/21 11:10:21;;;;;;;;;;;11.10;75.50;;;;;;5044558;27;87329;-39
2022/11/21 11:15:31;;;;;;;;;;;11.00;75.50;;;;;;5044525;28;86994;-39
2022/11/21 11:17:58;;;;;;;;;;;11.10;75.50;;;;;;5043701;28;88013;-39
2022/11/21 11:20:26;;;;;;;;;;;11.00;75.40;;;;;;5046773;28;89270;-39
2022/11/21 11:22:52;;;;;;;;;;;11.00;75.30;;;;;;5044414;27;87478;-39
2022/11/21 11:25:17;;;;;;;;;;;11.00;75.40;;;;;;5043926;28;88108;-39
2022/11/21 11:27:43;;;;;;;;;;;11.00;75.30;;;;;;5043973;28;87145;-39
2022/11/21 11:30:13;;;;;;;;;;;11.00;75.30;;;;;;5044244;28;87405;-39
2022/11/21 11:32:40;;;;;;;;;;;11.00;75.30;;;;;;5043662;28;89545;-39
2022/11/21 11:35:11;;;;;;;;;;;11.00;75.40;;;;;;5044295;28;86388;-39
2022/11/21 11:37:41;;;;;;;;;;;11.00;75.30;;;;;;5042425;28;90218;-39
2022/11/21 11:40:19;;;;;;;;;;;11.00;75.30;;;;;;5046414;28;87279;-39
2022/11/21 11:48:19;;;;;;;;;;;11.00;75.30;;;;;;5043093;28;86944;-39
2022/11/21 11:50:52;;;;;;;;;;;11.00;75.40;;;;;;5043601;28;87503;-39
2022/11/21 11:53:29;;;;;;;;;;;11.00;75.30;;;;;;5043283;28;88022;-39
2022/11/21 11:56:12;;;;;;;;;;;11.00;75.30;;;;;;5043459;28;87134;-39
2022/11/21 11:58:40;;;;;;;;;;;10.90;75.10;;;;;;5043602;28;87268;-39
2022/11/21 12:01:26;;;;;;;;;;;11.00;75.30;;;;;;5043945;28;87490;-39
2022/11/21 12:04:01;;;;;;;;;;;11.00;75.30;;;;;;5045938;28;87339;-39
2022/11/21 12:06:29;;;;;;;;;;;11.00;75.40;;;;;;5043118;28;88159;-39
2022/11/21 12:09:21;;;;;;;;;;;11.00;75.20;;;;;;5042849;28;88057;-39
2022/11/21 12:12:08;;;;;;;;;;;10.90;75.20;;;;;;5026339;27;88365;-39
2022/11/21 12:17:24;;;;;;;;;;;11.00;75.20;;;;;;5041539;28;87161;-39
2022/11/21 12:19:51;;;;;;;;;;;11.00;75.20;;;;;;5043153;28;88917;-39
2022/11/21 12:22:16;;;;;;;;;;;10.90;75.10;;;;;;5042820;28;87249;-39
2022/11/21 12:24:42;;;;;;;;;;;10.90;75.10;;;;;;5043250;28;87152;-39
2022/11/21 12:27:16;;;;;;;;;;;10.90;75.10;;;;;;5046488;28;87215;-39
2022/11/21 12:29:51;;;;;;;;;;;10.90;75.10;;;;;;5043013;28;87326;-39
2022/11/21 12:32:26;;;;;;;;;;;10.80;75.30;;;;;;5043262;27;87498;-39
2022/11/21 12:34:51;;;;;;;;;;;10.90;75.30;;;;;;5041638;28;90011;-39
2022/11/21 12:37:22;;;;;;;;;;;10.90;75.10;;;;;;5042967;28;87051;-39
2022/11/21 12:40:06;;;;;;;;;;;10.90;75.20;;;;;;5042899;28;87067;-39
2022/11/21 12:42:50;;;;;;;;;;;10.90;75.10;;;;;;5042794;27;88059;-39
2022/11/21 12:45:35;;;;;;;;;;;10.90;75.20;;;;;;5042226;28;86743;-40
2022/11/21 12:54:42;;;;;;;;;;;10.90;75.10;;;;;;5040600;28;86788;-39
2022/11/21 12:57:17;;;;;;;;;;;10.80;75.90;;;;;;5041905;27;88301;-39
2022/11/21 13:00:02;;;;;;;;;;;10.80;75.20;;;;;;5042651;28;87099;-39
2022/11/21 13:02:30;;;;;;;;;;;10.80;75.10;;;;;;5042302;27;88115;-39
2022/11/21 13:04:56;;;;;;;;;;;10.80;75.10;;;;;;5042100;28;89497;-39
2022/11/21 13:07:23;;;;;;;;;;;10.80;75.10;;;;;;5042572;28;87013;-39
2022/11/21 13:09:51;;;;;;;;;;;10.80;75.10;;;;;;5042577;27;87425;-39
2022/11/21 13:12:21;;;;;;;;;;;10.80;75.10;;;;;;5042088;28;88416;-39
2022/11/21 13:14:50;;;;;;;;;;;10.70;75.20;;;;;;5045421;28;87185;-39
2022/11/21 13:17:24;;;;;;;;;;;10.70;75.20;;;;;;5042471;28;87950;-39
2022/11/21 13:19:58;;;;;;;;;;;10.70;75.20;;;;;;5042877;28;86218;-39
2022/11/21 13:22:36;;;;;;;;;;;10.80;75.10;;;;;;5042644;28;86992;-39
2022/11/21 13:25:03;;;;;;;;;;;10.70;75.10;;;;;;5042298;28;87592;-39
2022/11/21 13:27:30;;;;;;;;;;;10.70;75.10;;;;;;5043434;27;88003;-39
2022/11/21 13:30:10;;;;;;;;;;;10.70;75.10;;;;;;5046097;28;88365;-39
2022/11/21 13:32:51;;;;;;;;;;;10.70;75.20;;;;;;5045519;28;87955;-39
2022/11/21 13:35:19;;;;;;;;;;;10.70;75.20;;;;;;5045666;28;87371;-39
2022/11/21 13:37:47;;;;;;;;;;;10.70;75.30;;;;;;5048663;28;87421;-39
2022/11/21 13:40:25;;;;;;;;;;;10.60;75.40;;;;;;5045934;28;87187;-39
2022/11/21 13:43:09;;;;;;;;;;;10.70;75.30;;;;;;5045902;27;87452;-39
2022/11/21 13:45:36;;;;;;;;;;;10.60;75.20;;;;;;5045031;28;87876;-39
2022/11/21 13:48:07;;;;;;;;;;;10.60;75.40;;;;;;5045637;28;87152;-39
2022/11/21 13:50:53;;;;;;;;;;;10.60;75.30;;;;;;5046137;27;87407;-39
2022/11/21 13:53:21;;;;;;;;;;;10.60;75.40;;;;;;5022421;28;89228;-40
2022/11/21 13:55:46;;;;;;;;;;;10.60;75.30;;;;;;5045868;28;87126;-39
2022/11/21 13:58:36;;;;;;;;;;;10.60;75.20;;;;;;5048097;27;86982;-39
2022/11/21 14:01:30;;;;;;;;;;;10.60;75.30;;;;;;5045805;28;86898;-39
2022/11/21 14:04:11;;;;;;;;;;;10.60;75.40;;;;;;5007485;27;87734;-39
2022/11/21 14:06:42;;;;;;;;;;;10.60;75.30;;;;;;5045172;28;88054;-39
2022/11/21 14:09:19;;;;;;;;;;;10.60;75.40;;;;;;5045130;28;87136;-39
2022/11/21 14:11:58;;;;;;;;;;;10.60;75.30;;;;;;5045709;27;86559;-39
2022/11/21 14:14:26;;;;;;;;;;;10.50;75.40;;;;;;5044908;28;87969;-39
2022/11/21 14:17:05;;;;;;;;;;;10.60;75.30;;;;;;5045234;28;87045;-39
2022/11/21 14:19:33;;;;;;;;;;;10.60;75.30;;;;;;5044661;28;87789;-39
2022/11/21 14:21:59;;;;;;;;;;;10.60;75.40;;;;;;5047546;28;89275;-39
2022/11/21 14:24:25;;;;;;;;;;;10.50;75.30;;;;;;5045208;27;86971;-39
2022/11/21 14:26:52;;;;;;;;;;;10.50;75.40;;;;;;5044783;28;88007;-39
2022/11/21 14:29:35;;;;;;;;;;;10.50;75.30;;;;;;5045354;28;87116;-40
2022/11/21 14:32:01;;;;;;;;;;;10.50;75.20;;;;;;5045026;27;87501;-39
2022/11/21 14:34:28;;;;;;;;;;;10.50;75.30;;;;;;5044722;28;88253;-39
2022/11/21 14:36:54;;;;;;;;;;;10.50;75.10;;;;;;5045417;28;86473;-39
2022/11/21 14:39:21;;;;;;;;;;;10.40;75.30;;;;;;5043649;27;86971;-39
2022/11/21 14:41:48;;;;;;;;;;;10.50;75.30;;;;;;5044618;28;88127;-39
2022/11/21 14:44:14;;;;;;;;;;;10.50;75.30;;;;;;5046690;28;88074;-39
2022/11/21 14:46:41;;;;;;;;;;;10.40;75.30;;;;;;5044267;28;88128;-39
2022/11/21 14:49:15;;;;;;;;;;;10.40;75.10;;;;;;5045048;28;87401;-39
2022/11/21 14:51:47;;;;;;;;;;;10.40;75.10;;;;;;5044609;28;87373;-39
2022/11/21 14:54:20;;;;;;;;;;;10.50;75.10;;;;;;5044174;28;88339;-39
2022/11/21 14:56:47;;;;;;;;;;;10.50;75.10;;;;;;5044265;28;87198;-39
2022/11/21 14:59:27;;;;;;;;;;;10.40;75.00;;;;;;5044481;27;88785;-39